Guojin 801 — 9GFQ — position and weather

sailwx.info

Track history (hours):
 
Tides and Currents Weather Stations Pressure Air Temp Water Temp Dewpoint Dewpoint Depression Visibility Wind Speed Wind Dir Waves Ship Positions

Guojin 801

Last reported at 2018-May-23 14:30 UTC. Time now 2018-May-23 14:58 UTC.
Position N 05°38' E 000°01'.

Type: Fishing. MMSI: 627389000.

Date/timePositionNaut miles runAvg speedWind from/ knotsBaromVisibWave heightAir tempDewpointWater temp
2018-May-23 14:30N 05°38' E 000°01'0 0.0
2018-May-23 13:59N 05°38' E 000°01'0 0.0
2018-May-23 13:28N 05°38' E 000°01'0 0.0
2018-May-23 12:59N 05°38' E 000°01'0 0.0
2018-May-23 12:29N 05°38' E 000°01'0 0.0
2018-May-23 11:58N 05°38' E 000°01'0 0.0
2018-May-23 11:28N 05°38' E 000°01'0 0.0
2018-May-23 10:57N 05°38' E 000°01'0 0.0
2018-May-23 10:30N 05°38' E 000°01'0 0.0
2018-May-23 09:59N 05°38' E 000°01'0 0.0
2018-May-23 09:29N 05°38' E 000°01'0 0.0
2018-May-23 08:59N 05°38' E 000°01'0 0.0
2018-May-23 08:29N 05°38' E 000°01'0 0.1
2018-May-23 07:58N 05°38' E 000°01'1 2.6
2018-May-23 07:29N 05°38' E 000°02'2 0.9
2018-May-23 05:22N 05°36' E 000°03'0 0.0
2018-May-23 04:49N 05°36' E 000°03'0 0.0
2018-May-23 03:59N 05°36' E 000°03'0 0.0
2018-May-23 03:29N 05°36' E 000°03'0 0.0
2018-May-23 02:51N 05°36' E 000°03'0 0.0
2018-May-23 02:24N 05°36' E 000°03'0 0.0
2018-May-23 01:51N 05°36' E 000°03'0 0.0
2018-May-23 01:30N 05°36' E 000°03'0 0.0
2018-May-23 01:00N 05°36' E 000°03'0 0.0
2018-May-23 00:30N 05°36' E 000°03'0 0.0
2018-May-22 23:58N 05°36' E 000°03'0 0.0
2018-May-22 23:28N 05°36' E 000°03'0 0.1
2018-May-22 22:54N 05°36' E 000°03'0 0.0
2018-May-22 22:30N 05°36' E 000°03'0 0.0
2018-May-22 21:58N 05°36' E 000°03'0 0.2
2018-May-22 21:18N 05°36' E 000°03'1 4.7
2018-May-22 21:00N 05°35' E 000°04'3 5.6
2018-May-22 20:30N 05°36' E 000°07'3 4.8
2018-May-22 19:58N 05°36' E 000°09'1 2.6
2018-May-22 19:30N 05°37' E 000°11'2 3.3
2018-May-22 19:00N 05°37' E 000°12'2 3.0
2018-May-22 18:29N 05°38' E 000°14'3 2.4
2018-May-22 17:06N 05°38' E 000°17'1 2.1
2018-May-22 16:52N 05°38' E 000°16'1 3.2
2018-May-22 16:30N 05°38' E 000°15'2 3.2
2018-May-22 16:00N 05°37' E 000°14'1 0.7
2018-May-22 13:55N 05°38' E 000°15'1 1.7
2018-May-22 13:29N 05°38' E 000°14'1 3.1
2018-May-22 13:00N 05°37' E 000°13'1 1.1
2018-May-22 12:07N 05°38' E 000°14'0 3.5
2018-May-22 12:00N 05°38' E 000°14'3 0.1
2018-May-21 11:00N 05°39' E 000°17'2 3.5
2018-May-21 10:30N 05°38' E 000°15'2 3.5
2018-May-21 09:56N 05°37' E 000°13'1 3.5
2018-May-21 09:30N 05°37' E 000°12'2 4.3
2018-May-21 08:57N 05°36' E 000°10'5 8.2
2018-May-21 08:22N 05°33' E 000°06'3 8.1
2018-May-21 08:00N 05°31' E 000°04'4 8.1
2018-May-21 07:30N 05°29' E 000°00'7 0.3
2018-May-20 08:25N 05°26' W 000°06'3 0.3
2018-May-20 00:12N 05°27' W 000°03'0 0.7
2018-May-19 23:56N 05°27' W 000°03'1 1.6
2018-May-19 23:13N 05°27' W 000°05'1 3.7
2018-May-19 23:00N 05°27' W 000°05'1 0.2
2018-May-19 18:41N 05°27' W 000°04'1 2.5
2018-May-19 18:23N 05°26' W 000°05'2 0.2
2018-May-19 09:29N 05°27' W 000°03'3 0.3
2018-May-19 00:55N 05°27' W 000°06'2 2.8
2018-May-19 00:19N 05°27' W 000°04'2 0.1
2018-May-18 08:10N 05°27' W 000°03'1 3.1
2018-May-18 08:00N 05°26' W 000°02'1 1.5
2018-May-18 07:18N 05°26' W 000°03'4 0.4
2018-May-17 20:30N 05°25' W 000°07'5 3.0
2018-May-17 18:49N 05°27' W 000°02'0 1.5
2018-May-17 18:30N 05°27' W 000°03'0 0.0
2018-May-17 09:51N 05°27' W 000°03'0 0.6
2018-May-17 09:28N 05°27' W 000°03'2 0.2
2018-May-17 00:48N 05°26' W 000°04'2 0.5
2018-May-16 20:32N 05°28' W 000°03'0 2.6
2018-May-16 20:27N 05°28' W 000°03'3 6.0
2018-May-16 19:59N 05°29' W 000°00'3 6.1
2018-May-16 19:29N 05°31' E 000°02'3 6.1
2018-May-16 19:00N 05°32' E 000°05'4 6.1
2018-May-16 18:24N 05°34' E 000°08'10 3.3
2018-May-16 15:28N 05°38' E 000°17'2 3.8
2018-May-16 14:57N 05°38' E 000°15'2 3.8
2018-May-16 14:28N 05°37' E 000°13'1 2.6
2018-May-16 14:00N 05°38' E 000°12'1 2.8
2018-May-16 13:30N 05°38' E 000°14'3 2.9
2018-May-16 12:32N 05°38' E 000°16'0 1.0
2018-May-16 12:30N 05°38' E 000°16'1 1.3
2018-May-16 11:59N 05°38' E 000°17'2 2.9
2018-May-16 11:26N 05°39' E 000°19'28 0.8
2018-May-14 23:07N 05°26' W 000°06'4 3.2
2018-May-14 21:57N 05°27' W 000°03'1 1.9
2018-May-14 21:30N 05°27' W 000°04'2 0.3
2018-May-14 13:56N 05°27' W 000°06'2 2.2
2018-May-14 13:12N 05°27' W 000°04'1 0.1
2018-May-14 00:47N 05°27' W 000°06'  
Track history (hours):
 
Tides and Currents Weather Stations Pressure Air Temp Water Temp Dewpoint Dewpoint Depression Visibility Wind Speed Wind Dir Waves Ship Positions

Guojin 801

Last reported at 2018-May-23 14:30 UTC. Time now 2018-May-23 14:58 UTC.
Position N 05°38' E 000°01'.

Type: Fishing. MMSI: 627389000.

Date/timePositionNaut miles runAvg speedWind from/ knotsBaromVisibWave heightAir tempDewpointWater temp
2018-May-23 14:30N 05°38' E 000°01'0 0.0
2018-May-23 13:59N 05°38' E 000°01'0 0.0
2018-May-23 13:28N 05°38' E 000°01'0 0.0
2018-May-23 12:59N 05°38' E 000°01'0 0.0
2018-May-23 12:29N 05°38' E 000°01'0 0.0
2018-May-23 11:58N 05°38' E 000°01'0 0.0
2018-May-23 11:28N 05°38' E 000°01'0 0.0
2018-May-23 10:57N 05°38' E 000°01'0 0.0
2018-May-23 10:30N 05°38' E 000°01'0 0.0
2018-May-23 09:59N 05°38' E 000°01'0 0.0
2018-May-23 09:29N 05°38' E 000°01'0 0.0
2018-May-23 08:59N 05°38' E 000°01'0 0.0
2018-May-23 08:29N 05°38' E 000°01'0 0.1
2018-May-23 07:58N 05°38' E 000°01'1 2.6
2018-May-23 07:29N 05°38' E 000°02'2 0.9
2018-May-23 05:22N 05°36' E 000°03'0 0.0
2018-May-23 04:49N 05°36' E 000°03'0 0.0
2018-May-23 03:59N 05°36' E 000°03'0 0.0
2018-May-23 03:29N 05°36' E 000°03'0 0.0
2018-May-23 02:51N 05°36' E 000°03'0 0.0
2018-May-23 02:24N 05°36' E 000°03'0 0.0
2018-May-23 01:51N 05°36' E 000°03'0 0.0
2018-May-23 01:30N 05°36' E 000°03'0 0.0
2018-May-23 01:00N 05°36' E 000°03'0 0.0
2018-May-23 00:30N 05°36' E 000°03'0 0.0
2018-May-22 23:58N 05°36' E 000°03'0 0.0
2018-May-22 23:28N 05°36' E 000°03'0 0.1
2018-May-22 22:54N 05°36' E 000°03'0 0.0
2018-May-22 22:30N 05°36' E 000°03'0 0.0
2018-May-22 21:58N 05°36' E 000°03'0 0.2
2018-May-22 21:18N 05°36' E 000°03'1 4.7
2018-May-22 21:00N 05°35' E 000°04'3 5.6
2018-May-22 20:30N 05°36' E 000°07'3 4.8
2018-May-22 19:58N 05°36' E 000°09'1 2.6
2018-May-22 19:30N 05°37' E 000°11'2 3.3
2018-May-22 19:00N 05°37' E 000°12'2 3.0
2018-May-22 18:29N 05°38' E 000°14'3 2.4
2018-May-22 17:06N 05°38' E 000°17'1 2.1
2018-May-22 16:52N 05°38' E 000°16'1 3.2
2018-May-22 16:30N 05°38' E 000°15'2 3.2
2018-May-22 16:00N 05°37' E 000°14'1 0.7
2018-May-22 13:55N 05°38' E 000°15'1 1.7
2018-May-22 13:29N 05°38' E 000°14'1 3.1
2018-May-22 13:00N 05°37' E 000°13'1 1.1
2018-May-22 12:07N 05°38' E 000°14'0 3.5
2018-May-22 12:00N 05°38' E 000°14'3 0.1
2018-May-21 11:00N 05°39' E 000°17'2 3.5
2018-May-21 10:30N 05°38' E 000°15'2 3.5
2018-May-21 09:56N 05°37' E 000°13'1 3.5
2018-May-21 09:30N 05°37' E 000°12'2 4.3
2018-May-21 08:57N 05°36' E 000°10'5 8.2
2018-May-21 08:22N 05°33' E 000°06'3 8.1
2018-May-21 08:00N 05°31' E 000°04'4 8.1
2018-May-21 07:30N 05°29' E 000°00'7 0.3
2018-May-20 08:25N 05°26' W 000°06'3 0.3
2018-May-20 00:12N 05°27' W 000°03'0 0.7
2018-May-19 23:56N 05°27' W 000°03'1 1.6
2018-May-19 23:13N 05°27' W 000°05'1 3.7
2018-May-19 23:00N 05°27' W 000°05'1 0.2
2018-May-19 18:41N 05°27' W 000°04'1 2.5
2018-May-19 18:23N 05°26' W 000°05'2 0.2
2018-May-19 09:29N 05°27' W 000°03'3 0.3
2018-May-19 00:55N 05°27' W 000°06'2 2.8
2018-May-19 00:19N 05°27' W 000°04'2 0.1
2018-May-18 08:10N 05°27' W 000°03'1 3.1
2018-May-18 08:00N 05°26' W 000°02'1 1.5
2018-May-18 07:18N 05°26' W 000°03'4 0.4
2018-May-17 20:30N 05°25' W 000°07'5 3.0
2018-May-17 18:49N 05°27' W 000°02'0 1.5
2018-May-17 18:30N 05°27' W 000°03'0 0.0
2018-May-17 09:51N 05°27' W 000°03'0 0.6
2018-May-17 09:28N 05°27' W 000°03'2 0.2
2018-May-17 00:48N 05°26' W 000°04'2 0.5
2018-May-16 20:32N 05°28' W 000°03'0 2.6
2018-May-16 20:27N 05°28' W 000°03'3 6.0
2018-May-16 19:59N 05°29' W 000°00'3 6.1
2018-May-16 19:29N 05°31' E 000°02'3 6.1
2018-May-16 19:00N 05°32' E 000°05'4 6.1
2018-May-16 18:24N 05°34' E 000°08'10 3.3
2018-May-16 15:28N 05°38' E 000°17'2 3.8
2018-May-16 14:57N 05°38' E 000°15'2 3.8
2018-May-16 14:28N 05°37' E 000°13'1 2.6
2018-May-16 14:00N 05°38' E 000°12'1 2.8
2018-May-16 13:30N 05°38' E 000°14'3 2.9
2018-May-16 12:32N 05°38' E 000°16'0 1.0
2018-May-16 12:30N 05°38' E 000°16'1 1.3
2018-May-16 11:59N 05°38' E 000°17'2 2.9
2018-May-16 11:26N 05°39' E 000°19'28 0.8
2018-May-14 23:07N 05°26' W 000°06'4 3.2
2018-May-14 21:57N 05°27' W 000°03'1 1.9
2018-May-14 21:30N 05°27' W 000°04'2 0.3
2018-May-14 13:56N 05°27' W 000°06'2 2.2
2018-May-14 13:12N 05°27' W 000°04'1 0.1
2018-May-14 00:47N 05°27' W 000°06'  

Dump ship's entire track history